createdAt,value
2019-04-27T00:03:02.262Z,81.54
2019-04-27T00:08:28.484Z,80.62
2019-04-27T00:13:34.802Z,80.53
2019-04-27T00:19:03.762Z,80.60
2019-04-27T00:24:06.212Z,80.67
2019-04-27T00:29:09.320Z,80.95
2019-04-27T00:34:11.391Z,81.00
2019-04-27T00:39:23.090Z,81.46
2019-04-27T00:44:27.307Z,80.99
2019-04-27T00:49:29.405Z,81.02
2019-04-27T00:54:31.583Z,81.21
2019-04-27T00:59:53.033Z,80.60
2019-04-27T01:04:55.219Z,81.28
2019-04-27T01:09:57.393Z,80.65
2019-04-27T01:14:59.455Z,80.73
2019-04-27T01:20:01.951Z,80.47
2019-04-27T01:25:04.524Z,80.78
2019-04-27T01:30:15.820Z,80.10
2019-04-27T01:35:18.690Z,79.64
2019-04-27T01:40:21.118Z,80.79
2019-04-27T01:45:23.206Z,81.64
2019-04-27T01:50:26.098Z,80.97
2019-04-27T01:55:30.071Z,80.92
2019-04-27T02:01:01.931Z,81.40
2019-04-27T02:06:04.294Z,80.93
2019-04-27T02:11:06.495Z,80.22
2019-04-27T02:16:09.053Z,79.97
2019-04-27T02:21:11.335Z,80.61
2019-04-27T02:26:13.465Z,80.27
2019-04-27T02:31:40.381Z,79.65
2019-04-27T02:36:42.693Z,79.52
2019-04-27T02:41:44.898Z,79.07
2019-04-27T02:46:50.217Z,79.72
2019-04-27T02:52:04.137Z,81.66
2019-04-27T02:57:06.252Z,82.18
2019-04-27T03:02:23.269Z,82.58
2019-04-27T03:07:25.669Z,82.44
2019-04-27T03:12:32.245Z,82.13
2019-04-27T03:18:02.699Z,83.03
2019-04-27T03:23:06.722Z,82.99
2019-04-27T03:28:13.142Z,83.59
2019-04-27T03:33:15.345Z,83.12
2019-04-27T03:38:19.783Z,83.05
2019-04-27T03:43:24.388Z,82.74
2019-04-27T03:48:29.060Z,82.54
2019-04-27T03:53:45.228Z,82.60
2019-04-27T03:58:50.906Z,82.52
2019-04-27T04:03:54.065Z,82.66
2019-04-27T04:08:56.232Z,82.30
2019-04-27T04:14:02.395Z,82.28
2019-04-27T04:19:06.123Z,83.06
2019-04-27T04:24:08.999Z,82.95
2019-04-27T04:29:12.771Z,83.24
2019-04-27T04:34:14.741Z,83.44
2019-04-27T04:39:19.616Z,83.09
2019-04-27T04:44:31.386Z,83.51
2019-04-27T04:49:33.490Z,82.90
2019-04-27T04:54:35.813Z,83.30
2019-04-27T04:59:39.023Z,83.16
2019-04-27T05:04:42.366Z,82.76
2019-04-27T05:09:44.591Z,82.83
2019-04-27T05:14:46.590Z,82.36
2019-04-27T05:19:49.431Z,82.97
2019-04-27T05:25:00.739Z,82.49
2019-04-27T05:30:04.092Z,82.40
2019-04-27T05:35:06.381Z,82.37
2019-04-27T05:40:09.173Z,81.70
2019-04-27T05:45:35.563Z,82.22
2019-04-27T05:50:43.067Z,82.08
2019-04-27T05:55:41.554Z,82.47
2019-04-27T06:00:43.682Z,82.20
2019-04-27T06:05:45.741Z,82.41
2019-04-27T06:10:48.909Z,81.57
2019-04-27T06:15:51.142Z,81.76
2019-04-27T06:20:55.733Z,80.93
2019-04-27T06:25:57.256Z,80.21
2019-04-27T06:30:59.524Z,79.89
2019-04-27T06:36:02.869Z,80.22
2019-04-27T06:41:04.808Z,79.32
2019-04-27T06:46:08.722Z,79.65
2019-04-27T06:51:10.912Z,79.32
2019-04-27T06:56:13.126Z,78.97
2019-04-27T07:01:15.211Z,78.24
2019-04-27T07:06:18.721Z,78.22
2019-04-27T07:11:21.216Z,77.07
2019-04-27T07:16:23.177Z,76.80
2019-04-27T07:21:26.155Z,76.39
2019-04-27T07:26:30.245Z,76.32
2019-04-27T07:31:32.483Z,76.79
2019-04-27T07:36:34.598Z,76.82
2019-04-27T07:41:36.599Z,76.62
2019-04-27T07:46:38.691Z,74.46
2019-04-27T07:51:40.658Z,75.26
2019-04-27T07:56:42.655Z,74.42
2019-04-27T08:01:44.735Z,72.87
2019-04-27T08:06:46.759Z,72.27
2019-04-27T08:11:48.903Z,72.17
2019-04-27T08:16:50.959Z,72.11
2019-04-27T08:21:53.038Z,70.60
2019-04-27T08:27:10.987Z,71.35
2019-04-27T08:32:16.061Z,70.58
2019-04-27T08:37:18.804Z,69.88
2019-04-27T08:42:21.029Z,69.33
2019-04-27T08:47:23.217Z,70.20
2019-04-27T08:52:25.388Z,70.11
2019-04-27T08:57:29.005Z,68.60
2019-04-27T09:02:41.696Z,67.18
2019-04-27T09:07:47.210Z,66.18
2019-04-27T09:13:02.480Z,66.38
2019-04-27T09:18:05.523Z,64.58
2019-04-27T09:23:07.658Z,63.07
2019-04-27T09:28:10.175Z,63.47
2019-04-27T09:33:12.420Z,64.04
2019-04-27T09:38:14.637Z,64.21
2019-04-27T09:43:16.590Z,63.97
2019-04-27T09:48:18.788Z,63.62
2019-04-27T09:53:20.876Z,62.44
2019-04-27T09:58:23.058Z,62.71
2019-04-27T10:03:26.613Z,63.35
2019-04-27T10:08:29.238Z,61.84
2019-04-27T10:13:31.326Z,63.43
2019-04-27T10:18:33.578Z,63.45
2019-04-27T10:23:36.208Z,62.21
2019-04-27T10:28:39.432Z,60.80
2019-04-27T10:33:41.451Z,59.48
2019-04-27T10:38:43.394Z,59.30
2019-04-27T10:43:45.502Z,60.97
2019-04-27T10:48:47.493Z,59.46
2019-04-27T10:53:49.450Z,59.45
2019-04-27T10:58:51.971Z,59.09
2019-04-27T11:04:02.156Z,56.07
2019-04-27T11:09:07.046Z,56.74
2019-04-27T11:14:09.730Z,56.23
2019-04-27T11:19:12.011Z,57.17
2019-04-27T11:24:14.109Z,55.50
2019-04-27T11:29:16.450Z,55.72
2019-04-27T11:34:21.016Z,55.50
2019-04-27T11:39:23.893Z,55.67
2019-04-27T11:44:26.085Z,53.68
2019-04-27T11:49:28.154Z,54.02
2019-04-27T11:54:30.361Z,51.35
2019-04-27T11:59:32.496Z,52.98
2019-04-27T12:04:36.349Z,50.36
2019-04-27T12:09:38.585Z,49.01
2019-04-27T12:14:40.597Z,48.67
2019-04-27T12:19:42.851Z,49.71
2019-04-27T12:24:45.748Z,52.36
2019-04-27T12:30:22.899Z,53.36
2019-04-27T12:35:25.715Z,46.76
2019-04-27T12:40:27.947Z,45.46
2019-04-27T12:45:30.830Z,45.79
2019-04-27T12:50:33.030Z,46.64
2019-04-27T12:55:52.584Z,47.72
2019-04-27T13:00:55.217Z,47.51
2019-04-27T13:05:57.781Z,49.19
2019-04-27T13:10:59.964Z,48.87
2019-04-27T13:16:03.002Z,49.77
2019-04-27T13:21:05.169Z,47.58
2019-04-27T13:26:07.386Z,50.40
2019-04-27T13:31:09.554Z,49.96
2019-04-27T13:36:11.718Z,50.52
2019-04-27T13:41:26.171Z,51.50
2019-04-27T13:46:41.182Z,50.16
2019-04-27T13:51:51.381Z,46.18
2019-04-27T13:56:53.759Z,46.97
2019-04-27T14:01:55.886Z,45.06
2019-04-27T14:06:58.990Z,47.19
2019-04-27T14:12:14.444Z,48.34
2019-04-27T14:17:16.622Z,48.30
2019-04-27T14:22:18.799Z,46.28
2019-04-27T14:27:22.748Z,46.06
2019-04-27T14:32:24.847Z,45.45
2019-04-27T14:37:28.559Z,42.60
2019-04-27T14:42:30.725Z,41.18
2019-04-27T14:47:32.763Z,40.85
2019-04-27T14:52:34.836Z,42.56
2019-04-27T14:57:37.038Z,42.48
2019-04-27T15:02:39.326Z,42.93
2019-04-27T15:07:41.496Z,45.90
2019-04-27T15:12:43.717Z,44.10
2019-04-27T15:17:45.789Z,50.54
2019-04-27T15:22:52.504Z,50.88
2019-04-27T15:27:57.641Z,51.81
2019-04-27T15:33:18.985Z,52.80
2019-04-27T15:38:24.120Z,53.93
2019-04-27T15:43:30.909Z,56.52
2019-04-27T15:48:34.141Z,58.60
2019-04-27T15:53:38.629Z,61.00
2019-04-27T15:58:40.430Z,65.87
2019-04-27T16:03:42.467Z,69.53
2019-04-27T16:08:46.820Z,70.65
2019-04-27T16:13:48.906Z,68.04
2019-04-27T16:18:51.290Z,68.16
2019-04-27T16:23:53.464Z,66.08
2019-04-27T16:28:55.506Z,66.98
2019-04-27T16:34:01.584Z,65.60
2019-04-27T16:39:08.373Z,65.13
2019-04-27T16:44:11.414Z,65.96
2019-04-27T16:49:14.862Z,66.31
2019-04-27T16:54:21.219Z,66.43
2019-04-27T16:59:39.153Z,66.56
2019-04-27T17:04:26.003Z,67.29
2019-04-27T17:09:29.267Z,68.40
2019-04-27T17:14:49.038Z,70.05
2019-04-27T17:19:58.169Z,69.94
2019-04-27T17:25:00.404Z,69.79
2019-04-27T17:30:03.747Z,69.80
2019-04-27T17:35:12.020Z,70.29
2019-04-27T17:40:10.905Z,70.99
2019-04-27T17:45:13.284Z,69.20
2019-04-27T17:50:18.406Z,68.77
2019-04-27T17:55:24.441Z,68.82
2019-04-27T18:00:28.056Z,68.60
2019-04-27T18:05:32.431Z,68.55
2019-04-27T18:10:35.001Z,69.28
2019-04-27T18:15:38.804Z,69.55
2019-04-27T18:20:42.618Z,69.59
2019-04-27T18:25:50.897Z,70.01
2019-04-27T18:31:18.698Z,70.26
2019-04-27T18:36:20.948Z,70.52
2019-04-27T18:41:22.962Z,70.76
2019-04-27T18:46:25.199Z,70.57
2019-04-27T18:51:52.588Z,70.14
2019-04-27T18:57:02.043Z,70.09
2019-04-27T19:01:59.174Z,69.67
2019-04-27T19:07:01.447Z,69.87
2019-04-27T19:12:03.609Z,71.36
2019-04-27T19:17:05.778Z,71.96
2019-04-27T19:22:08.972Z,73.82
2019-04-27T19:27:29.838Z,73.82
2019-04-27T19:32:32.013Z,73.85
2019-04-27T19:37:33.981Z,74.23
2019-04-27T19:42:35.939Z,75.11
2019-04-27T19:47:38.435Z,75.91
2019-04-27T19:52:40.816Z,77.14
2019-04-27T19:57:42.963Z,78.81
2019-04-27T20:02:45.146Z,79.81
2019-04-27T20:07:48.245Z,78.52
2019-04-27T20:12:51.010Z,78.85
2019-04-27T20:17:53.338Z,80.14
2019-04-27T20:22:55.430Z,80.64
2019-04-27T20:27:57.451Z,81.46
2019-04-27T20:33:00.936Z,77.22
2019-04-27T20:38:03.248Z,77.23
2019-04-27T20:43:05.304Z,77.00
2019-04-27T20:48:07.406Z,77.23
2019-04-27T20:53:13.018Z,77.09
2019-04-27T20:58:15.131Z,76.52
2019-04-27T21:03:28.529Z,77.31
2019-04-27T21:08:32.783Z,77.27
2019-04-27T21:13:34.868Z,77.26
2019-04-27T21:18:36.965Z,78.02
2019-04-27T21:23:39.168Z,78.72
2019-04-27T21:28:43.222Z,79.16
2019-04-27T21:33:45.107Z,79.78
2019-04-27T21:38:47.077Z,79.59
2019-04-27T21:43:49.145Z,79.59
2019-04-27T21:48:51.191Z,79.57
2019-04-27T21:54:09.043Z,79.79
2019-04-27T21:59:11.163Z,79.68
2019-04-27T22:04:13.697Z,78.69
2019-04-27T22:09:17.028Z,78.84
2019-04-27T22:14:19.216Z,79.26
2019-04-27T22:19:22.329Z,79.31
2019-04-27T22:24:44.135Z,78.17
2019-04-27T22:29:46.185Z,78.42
2019-04-27T22:34:48.267Z,78.07
2019-04-27T22:45:27.075Z,77.64
2019-04-27T22:50:31.184Z,77.35
2019-04-27T22:55:35.816Z,76.86
2019-04-27T23:00:51.829Z,77.24
2019-04-27T23:05:54.035Z,77.14
2019-04-27T23:10:57.428Z,77.18
2019-04-27T23:16:01.612Z,76.81
2019-04-27T23:21:03.791Z,75.79
2019-04-27T23:26:08.421Z,75.60
2019-04-27T23:31:17.371Z,75.85
2019-04-27T23:36:21.435Z,76.15
2019-04-27T23:41:23.667Z,76.40
2019-04-27T23:46:25.775Z,77.49
2019-04-27T23:51:46.378Z,77.93
2019-04-27T23:56:48.534Z,78.48
